sensor_id;sensor_type;location;lat;lon;timestamp;temperature;humidity
33247;DHT22;19606;50.108;19.804;2023-02-21T00:02:12;9.90;99.90
33247;DHT22;19606;50.108;19.804;2023-02-21T00:04:56;9.90;99.90
33247;DHT22;19606;50.108;19.804;2023-02-21T00:07:41;10.00;1.00
33247;DHT22;19606;50.108;19.804;2023-02-21T00:10:26;9.90;99.90
33247;DHT22;19606;50.108;19.804;2023-02-21T00:13:10;9.80;99.90
33247;DHT22;19606;50.108;19.804;2023-02-21T00:15:55;9.80;1.00
33247;DHT22;19606;50.108;19.804;2023-02-21T00:18:42;9.80;1.00
33247;DHT22;19606;50.108;19.804;2023-02-21T00:21:27;9.80;1.00
33247;DHT22;19606;50.108;19.804;2023-02-21T00:24:13;9.70;1.00
33247;DHT22;19606;50.108;19.804;2023-02-21T00:26:57;9.70;1.00
33247;DHT22;19606;50.108;19.804;2023-02-21T00:29:42;9.80;1.00
33247;DHT22;19606;50.108;19.804;2023-02-21T00:32:26;9.80;1.00
33247;DHT22;19606;50.108;19.804;2023-02-21T00:35:10;9.80;1.00
33247;DHT22;19606;50.108;19.804;2023-02-21T00:37:54;9.80;1.00
33247;DHT22;19606;50.108;19.804;2023-02-21T00:40:38;9.80;1.00
33247;DHT22;19606;50.108;19.804;2023-02-21T00:43:30;9.80;1.00
33247;DHT22;19606;50.108;19.804;2023-02-21T00:46:15;9.80;1.00
33247;DHT22;19606;50.108;19.804;2023-02-21T00:48:59;9.80;1.00
33247;DHT22;19606;50.108;19.804;2023-02-21T00:51:43;9.90;1.00
33247;DHT22;19606;50.108;19.804;2023-02-21T00:54:28;9.70;1.00
33247;DHT22;19606;50.108;19.804;2023-02-21T00:57:12;9.70;1.00
33247;DHT22;19606;50.108;19.804;2023-02-21T00:59:56;9.70;1.00
33247;DHT22;19606;50.108;19.804;2023-02-21T01:02:40;9.70;99.90
33247;DHT22;19606;50.108;19.804;2023-02-21T01:05:25;9.70;99.90
33247;DHT22;19606;50.108;19.804;2023-02-21T01:08:09;9.80;99.90
33247;DHT22;19606;50.108;19.804;2023-02-21T01:10:53;9.80;99.90
33247;DHT22;19606;50.108;19.804;2023-02-21T01:13:37;9.70;1.00
33247;DHT22;19606;50.108;19.804;2023-02-21T01:16:21;9.60;1.00
33247;DHT22;19606;50.108;19.804;2023-02-21T01:19:05;9.60;1.00
33247;DHT22;19606;50.108;19.804;2023-02-21T01:21:49;9.50;1.00
33247;DHT22;19606;50.108;19.804;2023-02-21T01:24:33;9.60;1.00
33247;DHT22;19606;50.108;19.804;2023-02-21T01:27:17;9.60;1.00
33247;DHT22;19606;50.108;19.804;2023-02-21T01:30:02;9.50;1.00
33247;DHT22;19606;50.108;19.804;2023-02-21T01:32:46;9.50;1.00
33247;DHT22;19606;50.108;19.804;2023-02-21T01:35:30;9.50;1.00
33247;DHT22;19606;50.108;19.804;2023-02-21T01:38:14;9.50;1.00
33247;DHT22;19606;50.108;19.804;2023-02-21T01:40:59;9.60;1.00
33247;DHT22;19606;50.108;19.804;2023-02-21T01:44:21;9.50;1.00
33247;DHT22;19606;50.108;19.804;2023-02-21T01:47:00;9.50;1.00
33247;DHT22;19606;50.108;19.804;2023-02-21T01:49:44;9.50;1.00
33247;DHT22;19606;50.108;19.804;2023-02-21T01:52:28;9.40;1.00
33247;DHT22;19606;50.108;19.804;2023-02-21T01:55:12;9.40;1.00
33247;DHT22;19606;50.108;19.804;2023-02-21T01:57:56;9.30;1.00
33247;DHT22;19606;50.108;19.804;2023-02-21T02:00:41;9.30;1.00
33247;DHT22;19606;50.108;19.804;2023-02-21T02:03:26;9.20;1.00
33247;DHT22;19606;50.108;19.804;2023-02-21T02:06:13;9.30;1.00
33247;DHT22;19606;50.108;19.804;2023-02-21T02:08:58;9.40;1.00
33247;DHT22;19606;50.108;19.804;2023-02-21T02:14:47;9.40;1.00
33247;DHT22;19606;50.108;19.804;2023-02-21T02:20:02;9.40;99.90
33247;DHT22;19606;50.108;19.804;2023-02-21T02:37:06;8.60;99.90
33247;DHT22;19606;50.108;19.804;2023-02-21T02:45:19;8.40;1.00
33247;DHT22;19606;50.108;19.804;2023-02-21T02:47:52;8.40;1.00
33247;DHT22;19606;50.108;19.804;2023-02-21T02:50:19;8.30;1.00
33247;DHT22;19606;50.108;19.804;2023-02-21T02:52:52;8.30;1.80
33247;DHT22;19606;50.108;19.804;2023-02-21T02:55:45;8.20;99.90
33247;DHT22;19606;50.108;19.804;2023-02-21T02:58:12;8.30;99.90
33247;DHT22;19606;50.108;19.804;2023-02-21T03:00:42;8.20;1.00
33247;DHT22;19606;50.108;19.804;2023-02-21T03:12:04;8.20;1.00
33247;DHT22;19606;50.108;19.804;2023-02-21T03:14:59;8.20;1.00
33247;DHT22;19606;50.108;19.804;2023-02-21T03:17:23;8.20;1.00
33247;DHT22;19606;50.108;19.804;2023-02-21T03:19:51;8.10;1.00
33247;DHT22;19606;50.108;19.804;2023-02-21T03:22:21;8.10;1.00
33247;DHT22;19606;50.108;19.804;2023-02-21T03:24:49;8.00;95.90
33247;DHT22;19606;50.108;19.804;2023-02-21T03:27:16;7.90;99.90
33247;DHT22;19606;50.108;19.804;2023-02-21T03:29:44;7.80;99.90
33247;DHT22;19606;50.108;19.804;2023-02-21T03:32:23;7.90;99.90
33247;DHT22;19606;50.108;19.804;2023-02-21T03:34:49;7.70;99.90
33247;DHT22;19606;50.108;19.804;2023-02-21T03:37:42;7.60;99.90
33247;DHT22;19606;50.108;19.804;2023-02-21T03:42:53;7.70;99.90
33247;DHT22;19606;50.108;19.804;2023-02-21T03:45:20;7.80;99.90
33247;DHT22;19606;50.108;19.804;2023-02-21T03:47:45;7.70;99.90
33247;DHT22;19606;50.108;19.804;2023-02-21T03:50:11;7.80;99.90
33247;DHT22;19606;50.108;19.804;2023-02-21T03:52:37;7.70;99.90
33247;DHT22;19606;50.108;19.804;2023-02-21T03:55:03;7.70;99.90
33247;DHT22;19606;50.108;19.804;2023-02-21T03:57:29;7.80;99.90
33247;DHT22;19606;50.108;19.804;2023-02-21T03:59:55;7.80;99.90
33247;DHT22;19606;50.108;19.804;2023-02-21T04:02:20;7.90;99.90
33247;DHT22;19606;50.108;19.804;2023-02-21T04:04:46;7.80;99.90
33247;DHT22;19606;50.108;19.804;2023-02-21T04:07:14;7.80;99.90
33247;DHT22;19606;50.108;19.804;2023-02-21T04:09:40;8.00;99.90
33247;DHT22;19606;50.108;19.804;2023-02-21T04:12:06;7.90;99.90
33247;DHT22;19606;50.108;19.804;2023-02-21T04:14:32;7.80;99.90
33247;DHT22;19606;50.108;19.804;2023-02-21T04:16:57;7.90;99.90
33247;DHT22;19606;50.108;19.804;2023-02-21T04:19:23;7.90;99.90
33247;DHT22;19606;50.108;19.804;2023-02-21T04:21:48;7.80;99.90
33247;DHT22;19606;50.108;19.804;2023-02-21T04:24:14;7.80;99.90
33247;DHT22;19606;50.108;19.804;2023-02-21T04:26:40;7.70;99.90
33247;DHT22;19606;50.108;19.804;2023-02-21T04:29:06;7.70;99.90
33247;DHT22;19606;50.108;19.804;2023-02-21T04:31:32;7.80;99.90
33247;DHT22;19606;50.108;19.804;2023-02-21T04:34:00;7.60;99.90
33247;DHT22;19606;50.108;19.804;2023-02-21T04:36:26;7.70;99.90
33247;DHT22;19606;50.108;19.804;2023-02-21T04:38:52;7.70;99.90
33247;DHT22;19606;50.108;19.804;2023-02-21T04:41:18;7.70;99.90
33247;DHT22;19606;50.108;19.804;2023-02-21T04:43:44;7.70;99.90
33247;DHT22;19606;50.108;19.804;2023-02-21T04:46:11;7.60;99.90
33247;DHT22;19606;50.108;19.804;2023-02-21T04:48:44;7.60;99.90
33247;DHT22;19606;50.108;19.804;2023-02-21T04:51:11;7.70;99.90
33247;DHT22;19606;50.108;19.804;2023-02-21T04:53:37;7.70;99.90
33247;DHT22;19606;50.108;19.804;2023-02-21T04:56:03;7.80;99.90
33247;DHT22;19606;50.108;19.804;2023-02-21T04:58:29;7.60;99.90
33247;DHT22;19606;50.108;19.804;2023-02-21T05:00:54;7.70;99.90
33247;DHT22;19606;50.108;19.804;2023-02-21T05:03:21;7.60;99.90
33247;DHT22;19606;50.108;19.804;2023-02-21T05:05:49;7.40;99.90
33247;DHT22;19606;50.108;19.804;2023-02-21T05:08:15;7.80;99.90
33247;DHT22;19606;50.108;19.804;2023-02-21T05:10:40;7.60;99.90
33247;DHT22;19606;50.108;19.804;2023-02-21T05:13:06;7.80;99.90
33247;DHT22;19606;50.108;19.804;2023-02-21T05:15:32;7.70;99.90
33247;DHT22;19606;50.108;19.804;2023-02-21T05:17:57;7.60;99.90
33247;DHT22;19606;50.108;19.804;2023-02-21T05:20:23;7.60;99.90
33247;DHT22;19606;50.108;19.804;2023-02-21T05:22:49;7.60;99.90
33247;DHT22;19606;50.108;19.804;2023-02-21T05:25:20;7.80;99.90
33247;DHT22;19606;50.108;19.804;2023-02-21T05:27:46;7.60;99.90
33247;DHT22;19606;50.108;19.804;2023-02-21T05:30:14;7.60;99.90
33247;DHT22;19606;50.108;19.804;2023-02-21T05:32:40;7.60;99.90
33247;DHT22;19606;50.108;19.804;2023-02-21T05:35:07;7.60;99.90
33247;DHT22;19606;50.108;19.804;2023-02-21T05:37:33;7.50;99.90
33247;DHT22;19606;50.108;19.804;2023-02-21T05:39:59;7.60;99.90
33247;DHT22;19606;50.108;19.804;2023-02-21T05:42:25;7.60;99.90
33247;DHT22;19606;50.108;19.804;2023-02-21T05:44:51;7.80;99.90
33247;DHT22;19606;50.108;19.804;2023-02-21T05:47:16;7.60;99.90
33247;DHT22;19606;50.108;19.804;2023-02-21T07:32:15;7.90;99.90
33247;DHT22;19606;50.108;19.804;2023-02-21T07:34:41;8.10;99.90
33247;DHT22;19606;50.108;19.804;2023-02-21T07:37:07;8.10;99.90
33247;DHT22;19606;50.108;19.804;2023-02-21T07:39:33;8.00;99.90
33247;DHT22;19606;50.108;19.804;2023-02-21T07:41:59;8.20;99.90
33247;DHT22;19606;50.108;19.804;2023-02-21T07:44:24;8.10;99.90
33247;DHT22;19606;50.108;19.804;2023-02-21T07:46:50;8.10;99.90
33247;DHT22;19606;50.108;19.804;2023-02-21T07:49:16;8.20;99.90
33247;DHT22;19606;50.108;19.804;2023-02-21T07:51:42;8.20;99.90
33247;DHT22;19606;50.108;19.804;2023-02-21T07:54:07;8.10;99.90
33247;DHT22;19606;50.108;19.804;2023-02-21T07:56:33;8.00;99.90
33247;DHT22;19606;50.108;19.804;2023-02-21T07:58:59;8.10;99.90
33247;DHT22;19606;50.108;19.804;2023-02-21T08:01:25;8.10;99.90
33247;DHT22;19606;50.108;19.804;2023-02-21T08:03:51;8.00;99.90
33247;DHT22;19606;50.108;19.804;2023-02-21T08:06:17;8.20;99.90
33247;DHT22;19606;50.108;19.804;2023-02-21T08:08:44;8.20;99.90
33247;DHT22;19606;50.108;19.804;2023-02-21T08:11:10;8.30;99.90
33247;DHT22;19606;50.108;19.804;2023-02-21T08:13:35;8.30;99.90
33247;DHT22;19606;50.108;19.804;2023-02-21T08:16:01;8.40;99.90
33247;DHT22;19606;50.108;19.804;2023-02-21T08:18:27;8.40;99.90
33247;DHT22;19606;50.108;19.804;2023-02-21T08:20:54;8.60;99.90
33247;DHT22;19606;50.108;19.804;2023-02-21T08:23:21;8.40;99.90
33247;DHT22;19606;50.108;19.804;2023-02-21T08:25:48;8.40;99.90
33247;DHT22;19606;50.108;19.804;2023-02-21T08:28:14;8.50;99.90
33247;DHT22;19606;50.108;19.804;2023-02-21T08:30:41;8.70;99.90
33247;DHT22;19606;50.108;19.804;2023-02-21T08:33:07;9.00;99.90
33247;DHT22;19606;50.108;19.804;2023-02-21T08:35:32;8.60;99.90
33247;DHT22;19606;50.108;19.804;2023-02-21T08:37:58;9.10;99.90
33247;DHT22;19606;50.108;19.804;2023-02-21T08:40:28;9.70;99.90
33247;DHT22;19606;50.108;19.804;2023-02-21T08:42:56;9.80;99.90
33247;DHT22;19606;50.108;19.804;2023-02-21T08:45:23;9.40;99.90
33247;DHT22;19606;50.108;19.804;2023-02-21T08:47:49;9.10;99.90
33247;DHT22;19606;50.108;19.804;2023-02-21T08:50:16;9.10;99.90
33247;DHT22;19606;50.108;19.804;2023-02-21T08:52:42;9.10;99.90
33247;DHT22;19606;50.108;19.804;2023-02-21T08:55:09;9.10;99.90
33247;DHT22;19606;50.108;19.804;2023-02-21T08:57:35;9.00;99.90
33247;DHT22;19606;50.108;19.804;2023-02-21T09:00:01;9.00;99.90
33247;DHT22;19606;50.108;19.804;2023-02-21T09:02:27;9.00;99.90
33247;DHT22;19606;50.108;19.804;2023-02-21T09:04:57;9.20;99.90
33247;DHT22;19606;50.108;19.804;2023-02-21T09:07:24;9.10;99.90
33247;DHT22;19606;50.108;19.804;2023-02-21T09:09:49;9.10;99.90
33247;DHT22;19606;50.108;19.804;2023-02-21T09:12:15;9.10;99.90
33247;DHT22;19606;50.108;19.804;2023-02-21T09:14:42;8.90;99.90
33247;DHT22;19606;50.108;19.804;2023-02-21T09:17:11;8.90;99.90
33247;DHT22;19606;50.108;19.804;2023-02-21T09:19:37;8.90;99.90
33247;DHT22;19606;50.108;19.804;2023-02-21T09:22:03;9.10;99.90
33247;DHT22;19606;50.108;19.804;2023-02-21T09:24:32;9.10;99.90
33247;DHT22;19606;50.108;19.804;2023-02-21T09:26:59;9.10;99.90
33247;DHT22;19606;50.108;19.804;2023-02-21T09:29:28;9.20;99.90
33247;DHT22;19606;50.108;19.804;2023-02-21T09:31:54;9.20;99.90
33247;DHT22;19606;50.108;19.804;2023-02-21T09:34:19;9.30;99.90
33247;DHT22;19606;50.108;19.804;2023-02-21T09:36:47;9.20;99.90
33247;DHT22;19606;50.108;19.804;2023-02-21T09:41:39;9.40;99.90
33247;DHT22;19606;50.108;19.804;2023-02-21T09:44:16;9.30;99.90
33247;DHT22;19606;50.108;19.804;2023-02-21T09:47:05;9.20;99.90
33247;DHT22;19606;50.108;19.804;2023-02-21T09:49:39;9.00;99.90
33247;DHT22;19606;50.108;19.804;2023-02-21T09:52:19;9.10;99.90
33247;DHT22;19606;50.108;19.804;2023-02-21T09:54:53;9.60;99.90
33247;DHT22;19606;50.108;19.804;2023-02-21T09:57:23;10.10;99.90
33247;DHT22;19606;50.108;19.804;2023-02-21T09:59:49;10.60;99.90
33247;DHT22;19606;50.108;19.804;2023-02-21T10:02:31;10.80;41.30
33247;DHT22;19606;50.108;19.804;2023-02-21T10:20:56;14.10;1.00
33247;DHT22;19606;50.108;19.804;2023-02-21T10:23:41;13.00;1.00
33247;DHT22;19606;50.108;19.804;2023-02-21T10:26:15;13.00;1.00
33247;DHT22;19606;50.108;19.804;2023-02-21T10:28:42;14.10;99.90
33247;DHT22;19606;50.108;19.804;2023-02-21T10:31:23;13.00;1.00
33247;DHT22;19606;50.108;19.804;2023-02-21T10:33:51;14.40;1.00
33247;DHT22;19606;50.108;19.804;2023-02-21T10:36:19;14.40;1.00
33247;DHT22;19606;50.108;19.804;2023-02-21T10:38:55;14.70;1.00
33247;DHT22;19606;50.108;19.804;2023-02-21T10:41:23;13.30;99.90
33247;DHT22;19606;50.108;19.804;2023-02-21T10:43:59;13.00;99.90
33247;DHT22;19606;50.108;19.804;2023-02-21T10:47:31;12.30;99.90
33247;DHT22;19606;50.108;19.804;2023-02-21T10:49:45;11.60;1.00
33247;DHT22;19606;50.108;19.804;2023-02-21T10:52:17;10.70;1.00
33247;DHT22;19606;50.108;19.804;2023-02-21T10:57:41;10.10;83.50
33247;DHT22;19606;50.108;19.804;2023-02-21T11:00:08;9.70;99.90
33247;DHT22;19606;50.108;19.804;2023-02-21T11:05:16;9.60;99.90
33247;DHT22;19606;50.108;19.804;2023-02-21T11:08:02;9.50;99.90
33247;DHT22;19606;50.108;19.804;2023-02-21T11:13:06;9.70;99.90
33247;DHT22;19606;50.108;19.804;2023-02-21T11:15:32;9.50;99.90
33247;DHT22;19606;50.108;19.804;2023-02-21T11:18:11;9.40;99.90
33247;DHT22;19606;50.108;19.804;2023-02-21T11:20:37;9.40;99.90
33247;DHT22;19606;50.108;19.804;2023-02-21T11:23:03;9.40;99.90
33247;DHT22;19606;50.108;19.804;2023-02-21T11:25:37;9.40;99.90
33247;DHT22;19606;50.108;19.804;2023-02-21T11:30:47;10.00;99.90
33247;DHT22;19606;50.108;19.804;2023-02-21T11:33:19;9.90;99.90
33247;DHT22;19606;50.108;19.804;2023-02-21T11:35:47;9.80;99.90
33247;DHT22;19606;50.108;19.804;2023-02-21T11:40:55;9.50;99.90
33247;DHT22;19606;50.108;19.804;2023-02-21T11:43:31;9.50;99.90
33247;DHT22;19606;50.108;19.804;2023-02-21T11:49:05;9.60;99.90
33247;DHT22;19606;50.108;19.804;2023-02-21T11:54:19;9.40;99.90
33247;DHT22;19606;50.108;19.804;2023-02-21T11:57:16;9.40;99.90
33247;DHT22;19606;50.108;19.804;2023-02-21T12:00:21;9.20;99.90
33247;DHT22;19606;50.108;19.804;2023-02-21T12:05:29;9.20;99.90
33247;DHT22;19606;50.108;19.804;2023-02-21T12:47:23;13.00;99.90
33247;DHT22;19606;50.108;19.804;2023-02-21T12:49:56;14.00;99.90
33247;DHT22;19606;50.108;19.804;2023-02-21T12:52:35;13.50;99.90
33247;DHT22;19606;50.108;19.804;2023-02-21T12:57:51;14.20;1.00
33247;DHT22;19606;50.108;19.804;2023-02-21T13:00:40;14.30;1.00
33247;DHT22;19606;50.108;19.804;2023-02-21T13:03:38;15.00;99.90
33247;DHT22;19606;50.108;19.804;2023-02-21T13:06:29;15.50;1.00
33247;DHT22;19606;50.108;19.804;2023-02-21T13:14:15;15.30;99.90
33247;DHT22;19606;50.108;19.804;2023-02-21T13:19:10;14.60;1.00
33247;DHT22;19606;50.108;19.804;2023-02-21T13:25:03;11.90;93.30
33247;DHT22;19606;50.108;19.804;2023-02-21T13:32:59;11.10;99.90
33247;DHT22;19606;50.108;19.804;2023-02-21T13:35:33;11.10;90.50
33247;DHT22;19606;50.108;19.804;2023-02-21T13:38:03;11.10;99.90
33247;DHT22;19606;50.108;19.804;2023-02-21T13:40:37;10.90;99.90
33247;DHT22;19606;50.108;19.804;2023-02-21T13:43:22;10.90;1.00
33247;DHT22;19606;50.108;19.804;2023-02-21T13:45:48;10.80;99.90
33247;DHT22;19606;50.108;19.804;2023-02-21T13:48:23;10.70;1.00
33247;DHT22;19606;50.108;19.804;2023-02-21T13:50:52;10.60;1.00
33247;DHT22;19606;50.108;19.804;2023-02-21T13:53:26;10.50;1.00
33247;DHT22;19606;50.108;19.804;2023-02-21T14:01:47;10.20;1.00
33247;DHT22;19606;50.108;19.804;2023-02-21T14:07:08;10.00;1.00
33247;DHT22;19606;50.108;19.804;2023-02-21T14:09:37;9.90;1.00
33247;DHT22;19606;50.108;19.804;2023-02-21T14:12:04;9.90;1.00
33247;DHT22;19606;50.108;19.804;2023-02-21T14:14:34;9.80;1.00
33247;DHT22;19606;50.108;19.804;2023-02-21T14:17:07;9.70;1.00
33247;DHT22;19606;50.108;19.804;2023-02-21T14:19:43;10.10;1.00
33247;DHT22;19606;50.108;19.804;2023-02-21T14:24:43;11.80;99.90
33247;DHT22;19606;50.108;19.804;2023-02-21T14:29:44;10.50;1.00
33247;DHT22;19606;50.108;19.804;2023-02-21T14:42:38;10.10;1.00
33247;DHT22;19606;50.108;19.804;2023-02-21T14:51:01;10.50;1.00
33247;DHT22;19606;50.108;19.804;2023-02-21T15:02:24;10.10;1.00
33247;DHT22;19606;50.108;19.804;2023-02-21T15:10:39;9.70;1.00
33247;DHT22;19606;50.108;19.804;2023-02-21T15:13:06;9.70;1.00
33247;DHT22;19606;50.108;19.804;2023-02-21T15:15:38;9.80;1.00
33247;DHT22;19606;50.108;19.804;2023-02-21T15:18:08;9.70;1.00
33247;DHT22;19606;50.108;19.804;2023-02-21T15:20:39;10.00;1.00
33247;DHT22;19606;50.108;19.804;2023-02-21T15:25:34;10.00;99.90
33247;DHT22;19606;50.108;19.804;2023-02-21T15:28:03;10.00;1.00
33247;DHT22;19606;50.108;19.804;2023-02-21T15:30:40;9.90;99.90
33247;DHT22;19606;50.108;19.804;2023-02-21T15:33:18;9.80;99.90
33247;DHT22;19606;50.108;19.804;2023-02-21T15:35:54;9.70;1.00
33247;DHT22;19606;50.108;19.804;2023-02-21T15:38:42;9.70;1.00
33247;DHT22;19606;50.108;19.804;2023-02-21T15:44:05;9.70;1.00
33247;DHT22;19606;50.108;19.804;2023-02-21T15:46:50;9.50;1.00
33247;DHT22;19606;50.108;19.804;2023-02-21T15:49:30;9.30;1.00
33247;DHT22;19606;50.108;19.804;2023-02-21T15:51:57;9.40;1.00
33247;DHT22;19606;50.108;19.804;2023-02-21T15:54:29;9.30;1.00
33247;DHT22;19606;50.108;19.804;2023-02-21T15:59:37;9.30;1.00
33247;DHT22;19606;50.108;19.804;2023-02-21T16:02:15;9.30;1.00
33247;DHT22;19606;50.108;19.804;2023-02-21T16:04:46;9.20;1.00
33247;DHT22;19606;50.108;19.804;2023-02-21T16:07:24;9.20;1.00
33247;DHT22;19606;50.108;19.804;2023-02-21T16:09:59;9.10;1.00
33247;DHT22;19606;50.108;19.804;2023-02-21T16:12:30;9.00;1.00
33247;DHT22;19606;50.108;19.804;2023-02-21T16:15:01;9.10;1.00
33247;DHT22;19606;50.108;19.804;2023-02-21T16:17:32;9.10;1.00
33247;DHT22;19606;50.108;19.804;2023-02-21T16:23:03;9.10;1.00
33247;DHT22;19606;50.108;19.804;2023-02-21T16:28:35;9.10;1.00
33247;DHT22;19606;50.108;19.804;2023-02-21T16:31:05;9.00;1.00
33247;DHT22;19606;50.108;19.804;2023-02-21T16:33:32;9.00;1.00
33247;DHT22;19606;50.108;19.804;2023-02-21T16:35:59;8.90;1.00
33247;DHT22;19606;50.108;19.804;2023-02-21T16:38:28;8.70;1.00
33247;DHT22;19606;50.108;19.804;2023-02-21T16:40:54;8.70;1.00
33247;DHT22;19606;50.108;19.804;2023-02-21T16:43:25;8.70;1.00
33247;DHT22;19606;50.108;19.804;2023-02-21T16:45:51;8.70;1.00
33247;DHT22;19606;50.108;19.804;2023-02-21T16:48:21;8.60;1.00
33247;DHT22;19606;50.108;19.804;2023-02-21T16:50:49;8.60;1.00
33247;DHT22;19606;50.108;19.804;2023-02-21T16:53:16;8.60;1.00
33247;DHT22;19606;50.108;19.804;2023-02-21T16:55:43;8.50;1.00
33247;DHT22;19606;50.108;19.804;2023-02-21T16:58:30;8.30;1.00
33247;DHT22;19606;50.108;19.804;2023-02-21T17:01:23;8.40;1.00
33247;DHT22;19606;50.108;19.804;2023-02-21T17:03:49;8.40;1.00
33247;DHT22;19606;50.108;19.804;2023-02-21T17:06:19;8.50;1.00
33247;DHT22;19606;50.108;19.804;2023-02-21T17:08:45;8.40;1.00
33247;DHT22;19606;50.108;19.804;2023-02-21T17:11:11;8.50;1.00
33247;DHT22;19606;50.108;19.804;2023-02-21T17:13:37;8.20;1.00
33247;DHT22;19606;50.108;19.804;2023-02-21T17:16:03;8.10;1.00
33247;DHT22;19606;50.108;19.804;2023-02-21T17:18:28;7.90;1.00
33247;DHT22;19606;50.108;19.804;2023-02-21T17:20:56;7.70;1.00
33247;DHT22;19606;50.108;19.804;2023-02-21T17:23:22;7.70;1.00
33247;DHT22;19606;50.108;19.804;2023-02-21T17:25:47;7.60;1.00
33247;DHT22;19606;50.108;19.804;2023-02-21T17:28:13;7.60;1.00
33247;DHT22;19606;50.108;19.804;2023-02-21T17:30:39;7.60;1.00
33247;DHT22;19606;50.108;19.804;2023-02-21T17:33:04;7.60;1.00
33247;DHT22;19606;50.108;19.804;2023-02-21T17:35:32;7.70;1.00
33247;DHT22;19606;50.108;19.804;2023-02-21T17:37:58;7.50;1.00
33247;DHT22;19606;50.108;19.804;2023-02-21T17:40:30;7.50;1.00
33247;DHT22;19606;50.108;19.804;2023-02-21T17:42:56;7.20;13.50
33247;DHT22;19606;50.108;19.804;2023-02-21T17:45:22;7.00;76.90
33247;DHT22;19606;50.108;19.804;2023-02-21T17:47:50;7.00;99.90
33247;DHT22;19606;50.108;19.804;2023-02-21T17:50:19;6.80;99.90
33247;DHT22;19606;50.108;19.804;2023-02-21T17:52:45;6.90;99.90
33247;DHT22;19606;50.108;19.804;2023-02-21T17:55:17;6.70;99.90
33247;DHT22;19606;50.108;19.804;2023-02-21T17:57:43;6.90;99.90
33247;DHT22;19606;50.108;19.804;2023-02-21T18:00:17;6.90;99.90
33247;DHT22;19606;50.108;19.804;2023-02-21T18:02:45;7.00;99.90
33247;DHT22;19606;50.108;19.804;2023-02-21T18:05:11;7.20;99.90
33247;DHT22;19606;50.108;19.804;2023-02-21T18:07:37;7.50;99.90
33247;DHT22;19606;50.108;19.804;2023-02-21T18:10:03;7.40;94.40
33247;DHT22;19606;50.108;19.804;2023-02-21T18:12:29;7.30;99.90
33247;DHT22;19606;50.108;19.804;2023-02-21T18:14:58;7.30;99.90
33247;DHT22;19606;50.108;19.804;2023-02-21T18:17:23;7.30;99.90
33247;DHT22;19606;50.108;19.804;2023-02-21T18:19:49;7.30;99.90
33247;DHT22;19606;50.108;19.804;2023-02-21T18:22:14;7.50;99.90
33247;DHT22;19606;50.108;19.804;2023-02-21T18:24:40;7.40;99.90
33247;DHT22;19606;50.108;19.804;2023-02-21T18:27:07;7.30;99.90
33247;DHT22;19606;50.108;19.804;2023-02-21T18:29:32;7.40;99.90
33247;DHT22;19606;50.108;19.804;2023-02-21T18:31:58;7.20;99.90
33247;DHT22;19606;50.108;19.804;2023-02-21T18:34:24;7.10;99.90
33247;DHT22;19606;50.108;19.804;2023-02-21T18:36:52;7.10;99.90
33247;DHT22;19606;50.108;19.804;2023-02-21T18:39:19;6.90;99.90
33247;DHT22;19606;50.108;19.804;2023-02-21T18:41:45;6.80;99.90
33247;DHT22;19606;50.108;19.804;2023-02-21T18:44:12;6.70;99.90
33247;DHT22;19606;50.108;19.804;2023-02-21T18:46:38;6.70;99.90
33247;DHT22;19606;50.108;19.804;2023-02-21T18:49:10;6.50;99.90
33247;DHT22;19606;50.108;19.804;2023-02-21T18:51:38;6.40;99.90
33247;DHT22;19606;50.108;19.804;2023-02-21T18:54:03;6.70;99.90
33247;DHT22;19606;50.108;19.804;2023-02-21T18:56:29;6.50;99.90
33247;DHT22;19606;50.108;19.804;2023-02-21T18:58:55;6.60;99.90
33247;DHT22;19606;50.108;19.804;2023-02-21T19:01:21;6.80;99.90
33247;DHT22;19606;50.108;19.804;2023-02-21T19:03:51;6.50;99.90
33247;DHT22;19606;50.108;19.804;2023-02-21T19:06:17;6.60;99.90
33247;DHT22;19606;50.108;19.804;2023-02-21T19:08:44;6.50;99.90
33247;DHT22;19606;50.108;19.804;2023-02-21T19:11:12;6.10;99.90
33247;DHT22;19606;50.108;19.804;2023-02-21T19:13:39;6.20;99.90
33247;DHT22;19606;50.108;19.804;2023-02-21T19:16:05;6.10;99.90
33247;DHT22;19606;50.108;19.804;2023-02-21T19:18:37;5.90;99.90
33247;DHT22;19606;50.108;19.804;2023-02-21T19:21:08;6.10;99.90
33247;DHT22;19606;50.108;19.804;2023-02-21T19:23:38;6.10;99.90
33247;DHT22;19606;50.108;19.804;2023-02-21T19:26:05;6.30;99.90
33247;DHT22;19606;50.108;19.804;2023-02-21T19:28:30;5.70;99.90
33247;DHT22;19606;50.108;19.804;2023-02-21T19:30:56;5.50;99.90
33247;DHT22;19606;50.108;19.804;2023-02-21T19:33:22;5.50;99.90
33247;DHT22;19606;50.108;19.804;2023-02-21T19:35:49;5.70;99.90
33247;DHT22;19606;50.108;19.804;2023-02-21T19:38:16;5.40;99.90
33247;DHT22;19606;50.108;19.804;2023-02-21T19:40:44;5.50;99.90
33247;DHT22;19606;50.108;19.804;2023-02-21T19:43:11;5.60;99.90
33247;DHT22;19606;50.108;19.804;2023-02-21T19:45:37;5.30;99.90
33247;DHT22;19606;50.108;19.804;2023-02-21T19:48:03;5.50;99.90
33247;DHT22;19606;50.108;19.804;2023-02-21T19:50:29;5.10;99.90
33247;DHT22;19606;50.108;19.804;2023-02-21T19:52:55;5.40;99.90
33247;DHT22;19606;50.108;19.804;2023-02-21T19:55:27;5.40;99.90
33247;DHT22;19606;50.108;19.804;2023-02-21T19:57:53;5.30;99.90
33247;DHT22;19606;50.108;19.804;2023-02-21T20:00:19;5.30;99.90
33247;DHT22;19606;50.108;19.804;2023-02-21T20:02:45;5.50;99.90
33247;DHT22;19606;50.108;19.804;2023-02-21T20:05:12;5.30;99.90
33247;DHT22;19606;50.108;19.804;2023-02-21T20:07:39;5.60;99.90
33247;DHT22;19606;50.108;19.804;2023-02-21T20:10:06;5.50;47.00
33247;DHT22;19606;50.108;19.804;2023-02-21T20:12:32;5.40;68.80
33247;DHT22;19606;50.108;19.804;2023-02-21T20:14:58;5.20;65.70
33247;DHT22;19606;50.108;19.804;2023-02-21T20:17:23;5.00;99.90
33247;DHT22;19606;50.108;19.804;2023-02-21T20:19:52;5.30;99.90
33247;DHT22;19606;50.108;19.804;2023-02-21T20:22:18;4.90;99.90
33247;DHT22;19606;50.108;19.804;2023-02-21T20:27:16;1.90;99.90
33247;DHT22;19606;50.108;19.804;2023-02-21T20:29:42;4.70;99.90
33247;DHT22;19606;50.108;19.804;2023-02-21T20:32:07;4.90;99.90
33247;DHT22;19606;50.108;19.804;2023-02-21T20:34:40;5.00;67.70
33247;DHT22;19606;50.108;19.804;2023-02-21T20:37:05;5.10;18.40
33247;DHT22;19606;50.108;19.804;2023-02-21T20:39:31;5.00;4.10
33247;DHT22;19606;50.108;19.804;2023-02-21T20:42:01;5.00;1.00
33247;DHT22;19606;50.108;19.804;2023-02-21T20:44:33;4.90;1.00
33247;DHT22;19606;50.108;19.804;2023-02-21T20:46:59;4.80;1.00
33247;DHT22;19606;50.108;19.804;2023-02-21T20:49:25;4.60;1.00
33247;DHT22;19606;50.108;19.804;2023-02-21T20:51:50;4.80;1.00
33247;DHT22;19606;50.108;19.804;2023-02-21T20:54:18;4.90;1.00
33247;DHT22;19606;50.108;19.804;2023-02-21T20:56:48;5.00;1.00
33247;DHT22;19606;50.108;19.804;2023-02-21T20:59:16;5.00;1.00
33247;DHT22;19606;50.108;19.804;2023-02-21T21:01:44;5.20;1.00